Terminal Aerodrome Forecast
Issued by NWS

Home | Current Version | Previous Version | Text Only | Print | Product List | Glossary On
Versions: 1 2 3 4 5 6 7 8 9 10 11 12
826
FTUS45 KABQ 300531
TAFGUP
TAF
KGUP 300531Z 3006/3106 VRB03KT P6SM SKC
     FM301800 23008KT P6SM FEW120
     FM302100 24011G20KT P6SM SCT120
     FM310200 27005KT P6SM BKN120=

USA.gov is the U.S. government's official web portal to all federal, state and local government web resources and services.